Time;durP1;ratioP1;P1;durP2;ratioP2;P2;SDS_P1;SDS_P2;PMS_P1;PMS_P2;Temp;Humidity;BMP_temperature;BMP_pressure;BME280_temperature;BME280_humidity;BME280_pressure;Samples;Min_cycle;Max_cycle;Signal;HPM_P1;HPM_P2
2023/05/24 00:02:16;;;;;;;19.13;6.00;;;8.60;99.90;;;;;;5055345;28;20052;-69
2023/05/24 00:04:43;;;;;;;24.27;6.00;;;8.60;99.90;;;;;;5073595;28;20052;-69
2023/05/24 00:07:11;;;;;;;20.48;5.97;;;8.60;99.90;;;;;;5070476;28;20056;-69
2023/05/24 00:09:38;;;;;;;20.98;4.88;;;8.70;99.90;;;;;;5055700;28;20056;-70
2023/05/24 00:12:06;;;;;;;24.33;7.35;;;8.70;99.90;;;;;;5071361;28;20052;-70
2023/05/24 00:14:33;;;;;;;17.38;5.75;;;8.70;99.90;;;;;;5072839;28;20052;-70
2023/05/24 00:17:01;;;;;;;16.08;5.68;;;8.80;99.90;;;;;;5073181;28;20048;-70
2023/05/24 00:19:28;;;;;;;19.55;6.10;;;9.50;99.90;;;;;;5055563;28;20052;-70
2023/05/24 00:21:55;;;;;;;35.08;6.35;;;8.90;99.90;;;;;;5054484;28;20048;-70
2023/05/24 00:24:22;;;;;;;20.05;5.72;;;8.90;99.90;;;;;;5070944;28;20052;-70
2023/05/24 00:26:49;;;;;;;19.60;6.90;;;8.90;99.90;;;;;;5055383;28;20048;-70
2023/05/24 00:29:16;;;;;;;19.52;5.78;;;8.90;99.90;;;;;;5052378;28;20542;-71
2023/05/24 00:31:43;;;;;;;20.40;5.60;;;8.90;99.90;;;;;;5055008;28;20056;-69
2023/05/24 00:34:11;;;;;;;19.90;5.45;;;8.90;99.90;;;;;;5052907;28;20048;-71
2023/05/24 00:36:38;;;;;;;21.67;5.45;;;9.60;99.90;;;;;;5072615;28;20538;-71
2023/05/24 00:39:05;;;;;;;23.85;6.28;;;8.90;99.90;;;;;;5055361;28;20056;-70
2023/05/24 00:41:32;;;;;;;18.05;6.22;;;9.00;99.90;;;;;;5070760;28;20047;-70
2023/05/24 00:43:59;;;;;;;22.50;6.07;;;8.90;99.90;;;;;;5054643;28;20052;-70
2023/05/24 00:46:28;;;;;;;19.00;5.75;;;8.90;99.90;;;;;;5055073;28;20098;-70
2023/05/24 00:48:56;;;;;;;25.73;6.35;;;8.90;99.90;;;;;;5054937;28;20052;-70
2023/05/24 00:51:26;;;;;;;27.33;5.78;;;8.90;99.90;;;;;;5054242;28;20048;-70
2023/05/24 00:53:54;;;;;;;22.20;6.35;;;8.90;99.90;;;;;;5054787;28;20052;-70
2023/05/24 00:56:22;;;;;;;21.50;6.93;;;8.90;99.90;;;;;;5054289;28;20123;-71
2023/05/24 00:58:53;;;;;;;20.85;5.97;;;8.80;99.90;;;;;;5072681;28;20075;-70
2023/05/24 01:01:20;;;;;;;21.85;5.68;;;8.80;99.90;;;;;;5054968;28;20372;-70
2023/05/24 01:03:47;;;;;;;17.35;5.35;;;8.80;99.90;;;;;;5053844;28;20040;-70
2023/05/24 01:06:16;;;;;;;18.60;5.60;;;8.80;99.90;;;;;;5054907;28;20056;-70
2023/05/24 01:08:54;;;;;;;20.85;6.03;;;9.00;99.90;;;;;;5070549;28;20053;-70
2023/05/24 01:11:29;;;;;;;18.33;5.30;;;8.70;99.90;;;;;;5070519;28;20083;-69
2023/05/24 01:14:03;;;;;;;14.55;4.70;;;8.70;99.90;;;;;;5070928;28;20051;-70
2023/05/24 01:16:45;;;;;;;16.98;5.45;;;8.70;99.90;;;;;;5052650;28;20044;-70
2023/05/24 01:19:42;;;;;;;19.45;5.15;;;9.50;99.90;;;;;;5070700;28;20040;-70
2023/05/24 01:22:17;;;;;;;17.05;5.07;;;8.70;99.90;;;;;;5052899;28;20067;-69
2023/05/24 01:25:01;;;;;;;15.50;4.72;;;8.60;99.90;;;;;;5071541;28;20048;-70
2023/05/24 01:27:30;;;;;;;17.85;5.07;;;8.60;99.90;;;;;;5052984;28;20099;-70
2023/05/24 01:29:59;;;;;;;15.13;4.70;;;8.60;99.90;;;;;;5052194;28;20059;-70
2023/05/24 01:32:26;;;;;;;20.30;5.47;;;9.40;99.90;;;;;;5053448;28;20501;-70
2023/05/24 01:34:53;;;;;;;22.00;5.85;;;8.60;99.90;;;;;;5072345;28;20106;-70
2023/05/24 01:37:20;;;;;;;27.50;6.05;;;8.50;99.90;;;;;;5054201;28;20036;-70
2023/05/24 01:39:48;;;;;;;23.15;5.00;;;8.50;99.90;;;;;;5053676;28;20052;-69
2023/05/24 01:42:24;;;;;;;21.45;5.93;;;8.40;99.90;;;;;;5053946;28;20055;-70
2023/05/24 01:45:00;;;;;;;20.77;5.50;;;8.40;99.90;;;;;;5054005;28;20059;-70
2023/05/24 01:47:42;;;;;;;19.08;5.50;;;8.50;99.90;;;;;;5051873;28;20476;-69
2023/05/24 01:50:17;;;;;;;15.52;5.88;;;8.50;99.90;;;;;;5055098;28;20480;-71
2023/05/24 01:52:45;;;;;;;19.30;5.97;;;8.50;99.90;;;;;;5075559;28;20056;-70
2023/05/24 01:55:15;;;;;;;17.75;4.50;;;9.30;99.90;;;;;;5058116;28;20052;-70
2023/05/24 01:57:44;;;;;;;26.88;4.93;;;8.70;99.90;;;;;;5074277;28;20040;-69
2023/05/24 02:00:15;;;;;;;15.55;5.63;;;8.70;99.90;;;;;;5057411;28;20052;-70
2023/05/24 02:02:42;;;;;;;14.38;4.47;;;8.80;99.90;;;;;;5075831;28;20503;-69
2023/05/24 02:05:10;;;;;;;17.63;4.90;;;8.80;99.90;;;;;;5075838;28;20067;-70
2023/05/24 02:07:37;;;;;;;19.17;5.03;;;8.80;99.90;;;;;;5074915;28;20052;-70
2023/05/24 02:10:05;;;;;;;17.20;5.00;;;8.90;99.90;;;;;;5058190;28;20477;-69
2023/05/24 02:12:32;;;;;;;17.92;5.22;;;8.90;99.90;;;;;;5073951;28;20059;-70
2023/05/24 02:14:59;;;;;;;17.42;5.03;;;9.00;99.90;;;;;;5075056;28;20055;-69
2023/05/24 02:17:27;;;;;;;26.38;6.63;;;9.00;99.90;;;;;;5057464;28;20503;-70
2023/05/24 02:19:54;;;;;;;22.35;5.82;;;9.10;99.90;;;;;;5057387;28;20053;-70
2023/05/24 02:22:22;;;;;;;19.05;4.20;;;9.20;99.90;;;;;;5057070;28;20052;-70
2023/05/24 02:24:49;;;;;;;17.58;5.15;;;9.80;99.90;;;;;;5057534;28;20052;-69
2023/05/24 02:27:15;;;;;;;18.92;4.47;;;9.30;99.90;;;;;;5057704;28;20504;-71
2023/05/24 02:29:42;;;;;;;16.20;4.45;;;10.20;99.90;;;;;;5055061;28;20480;-69
2023/05/24 02:32:09;;;;;;;16.88;4.53;;;9.40;99.90;;;;;;5057421;28;20052;-69
2023/05/24 02:34:38;;;;;;;21.75;6.75;;;9.40;99.90;;;;;;5074644;28;20090;-70
2023/05/24 02:37:05;;;;;;;15.30;4.85;;;9.50;99.90;;;;;;5057302;28;20052;-70
2023/05/24 02:39:32;;;;;;;17.98;5.03;;;9.70;99.90;;;;;;5075504;28;20415;-71
2023/05/24 02:41:59;;;;;;;26.00;5.82;;;9.60;99.90;;;;;;5057022;28;20053;-71
2023/05/24 02:44:26;;;;;;;18.02;5.13;;;10.40;99.90;;;;;;5057085;28;20055;-71
2023/05/24 02:46:53;;;;;;;19.52;5.38;;;9.80;99.90;;;;;;5075239;28;20049;-71
2023/05/24 02:49:20;;;;;;;18.30;4.43;;;9.60;99.90;;;;;;5074251;28;20051;-70
2023/05/24 02:51:48;;;;;;;19.98;5.53;;;9.70;99.90;;;;;;5075642;28;20051;-70
2023/05/24 02:54:16;;;;;;;23.13;4.78;;;9.80;99.90;;;;;;5057413;28;20424;-68
2023/05/24 02:56:43;;;;;;;17.95;5.28;;;9.80;99.90;;;;;;5056687;28;20053;-69
2023/05/24 02:59:11;;;;;;;18.48;4.72;;;9.80;99.90;;;;;;5075472;28;20305;-70
2023/05/24 03:01:39;;;;;;;15.45;4.53;;;9.80;99.90;;;;;;5057272;28;20055;-70
2023/05/24 03:04:06;;;;;;;13.75;4.55;;;9.80;99.90;;;;;;5056487;28;20048;-69
2023/05/24 03:06:33;;;;;;;15.48;4.80;;;9.80;99.90;;;;;;5074902;28;20041;-69
2023/05/24 03:09:01;;;;;;;15.57;4.75;;;9.80;99.90;;;;;;5056610;28;20098;-70
2023/05/24 03:11:29;;;;;;;17.83;4.97;;;9.90;99.90;;;;;;5054409;28;20056;-70
2023/05/24 03:13:56;;;;;;;14.45;4.18;;;9.90;99.90;;;;;;5056369;28;20522;-70
2023/05/24 03:16:24;;;;;;;19.38;4.35;;;9.90;99.90;;;;;;5074384;28;20044;-70
2023/05/24 03:18:54;;;;;;;16.92;4.60;;;10.00;99.90;;;;;;5056083;28;20484;-69
2023/05/24 03:21:22;;;;;;;24.70;4.80;;;9.90;99.90;;;;;;5074442;28;20044;-69
2023/05/24 03:23:49;;;;;;;12.13;4.55;;;9.90;99.90;;;;;;5074009;28;20370;-69
2023/05/24 03:26:18;;;;;;;22.58;5.07;;;10.40;99.90;;;;;;5056058;28;20040;-69
2023/05/24 03:28:45;;;;;;;15.80;4.75;;;10.00;99.90;;;;;;5073819;28;20056;-69
2023/05/24 03:31:13;;;;;;;11.70;4.43;;;10.00;99.90;;;;;;5053273;28;20094;-70
2023/05/24 03:33:40;;;;;;;17.42;4.75;;;10.40;99.90;;;;;;5074269;28;20056;-70
2023/05/24 03:36:07;;;;;;;14.63;3.80;;;10.10;99.90;;;;;;5074157;28;20044;-70
2023/05/24 03:38:34;;;;;;;15.15;4.60;;;10.10;99.90;;;;;;5055659;28;20106;-70
2023/05/24 03:41:01;;;;;;;16.38;3.80;;;10.20;99.90;;;;;;5071602;28;20480;-69
2023/05/24 03:43:29;;;;;;;16.23;4.65;;;10.20;99.90;;;;;;5055911;28;20075;-70
2023/05/24 03:45:56;;;;;;;18.63;4.47;;;10.20;99.90;;;;;;5055630;28;20480;-70
2023/05/24 03:48:23;;;;;;;20.60;4.90;;;10.20;99.90;;;;;;5073377;28;20044;-70
2023/05/24 03:50:50;;;;;;;16.17;3.78;;;10.30;99.90;;;;;;5056010;28;20409;-70
2023/05/24 03:53:17;;;;;;;16.70;4.05;;;10.50;99.90;;;;;;5045771;28;20060;-69
2023/05/24 03:55:44;;;;;;;17.42;3.92;;;10.60;99.90;;;;;;5069752;28;20098;-70
2023/05/24 03:58:11;;;;;;;16.55;4.55;;;10.60;99.90;;;;;;5072127;28;20056;-69
2023/05/24 04:00:39;;;;;;;15.68;4.25;;;10.80;99.90;;;;;;5053007;28;20056;-70
2023/05/24 04:03:07;;;;;;;18.25;4.07;;;10.90;99.90;;;;;;5072297;28;20059;-70
2023/05/24 04:05:34;;;;;;;14.65;4.55;;;10.80;99.90;;;;;;5053257;28;20053;-70
2023/05/24 04:08:01;;;;;;;19.27;4.78;;;10.90;99.90;;;;;;5071806;28;20454;-71
2023/05/24 04:10:28;;;;;;;10.50;3.85;;;11.00;99.90;;;;;;5053703;28;20045;-70
2023/05/24 04:12:55;;;;;;;26.13;4.72;;;11.00;99.90;;;;;;5071073;28;20056;-71
2023/05/24 04:15:23;;;;;;;17.90;4.63;;;11.00;99.90;;;;;;5051166;28;20052;-71
2023/05/24 04:17:53;;;;;;;20.95;4.45;;;11.00;99.90;;;;;;5069428;28;20036;-71
2023/05/24 04:20:22;;;;;;;18.25;4.95;;;11.10;99.90;;;;;;5052198;28;20132;-71
2023/05/24 04:22:49;;;;;;;14.40;4.20;;;11.10;99.90;;;;;;5054198;28;20063;-71
2023/05/24 04:25:16;;;;;;;14.63;4.53;;;12.00;99.90;;;;;;5048552;28;20052;-71
2023/05/24 04:27:47;;;;;;;19.73;4.38;;;11.40;99.90;;;;;;5071544;28;20048;-70
2023/05/24 04:30:14;;;;;;;16.27;4.78;;;11.30;99.90;;;;;;5069678;28;20125;-71
2023/05/24 04:32:43;;;;;;;16.98;4.15;;;11.30;99.90;;;;;;5071704;28;20109;-71
2023/05/24 04:35:11;;;;;;;15.05;5.32;;;11.30;99.90;;;;;;5050089;28;20060;-69
2023/05/24 04:37:38;;;;;;;23.92;5.30;;;11.50;99.90;;;;;;5069753;28;20049;-70
2023/05/24 04:40:06;;;;;;;23.90;6.57;;;11.50;99.90;;;;;;5068898;28;20044;-70
2023/05/24 04:42:33;;;;;;;19.08;5.00;;;12.00;99.90;;;;;;5068616;28;20056;-70
2023/05/24 04:45:01;;;;;;;15.10;4.45;;;12.00;99.90;;;;;;5050904;28;20500;-71
2023/05/24 04:47:28;;;;;;;18.27;4.53;;;11.50;99.90;;;;;;5052120;28;20052;-71
2023/05/24 04:49:54;;;;;;;13.00;4.47;;;11.40;99.90;;;;;;5053418;28;20064;-71
2023/05/24 04:52:23;;;;;;;16.17;4.53;;;11.30;99.90;;;;;;5052017;28;20048;-70
2023/05/24 04:54:50;;;;;;;14.57;5.38;;;11.20;99.90;;;;;;5053775;28;20071;-70
2023/05/24 04:57:17;;;;;;;21.23;6.15;;;11.20;99.90;;;;;;5050306;28;20117;-71
2023/05/24 04:59:45;;;;;;;16.90;4.75;;;11.60;99.90;;;;;;5070648;28;20047;-72
2023/05/24 05:02:11;;;;;;;19.95;5.00;;;11.10;99.90;;;;;;5050493;28;20497;-71
2023/05/24 05:04:38;;;;;;;11.82;4.80;;;11.00;99.90;;;;;;5051412;28;20059;-71
2023/05/24 05:07:05;;;;;;;14.57;4.13;;;10.90;99.90;;;;;;5047848;28;20110;-71
2023/05/24 05:09:34;;;;;;;17.33;5.15;;;10.90;99.90;;;;;;5052476;28;20067;-71
2023/05/24 05:12:01;;;;;;;13.90;5.35;;;11.20;99.90;;;;;;5050230;28;20051;-71
2023/05/24 05:14:28;;;;;;;18.27;5.63;;;10.80;99.90;;;;;;5069741;28;20041;-71
2023/05/24 05:16:55;;;;;;;16.77;4.82;;;10.80;99.90;;;;;;5049544;28;20430;-69
2023/05/24 05:19:22;;;;;;;18.92;5.45;;;10.90;99.90;;;;;;5071262;28;20076;-71
2023/05/24 05:21:49;;;;;;;17.58;5.07;;;10.90;99.90;;;;;;5064504;28;20051;-71
2023/05/24 05:24:17;;;;;;;15.82;4.15;;;11.00;99.90;;;;;;5051602;28;20060;-71
2023/05/24 05:26:45;;;;;;;19.38;5.60;;;11.00;99.90;;;;;;5050363;28;20052;-72
2023/05/24 05:29:12;;;;;;;13.30;4.53;;;11.50;99.90;;;;;;5049745;28;20052;-71
2023/05/24 05:31:39;;;;;;;14.85;5.07;;;11.20;99.90;;;;;;5050336;28;20484;-70
2023/05/24 05:34:08;;;;;;;13.07;4.43;;;11.20;99.90;;;;;;5052138;28;20063;-71
2023/05/24 05:36:39;;;;;;;13.38;4.95;;;11.30;99.90;;;;;;5068939;28;20072;-71
2023/05/24 05:39:08;;;;;;;22.92;4.20;;;11.40;99.90;;;;;;5051874;28;20063;-71
2023/05/24 05:41:36;;;;;;;18.15;4.13;;;11.90;99.90;;;;;;5052081;28;20056;-70
2023/05/24 05:44:05;;;;;;;18.98;5.00;;;11.60;99.90;;;;;;5052162;28;20056;-71
2023/05/24 05:46:32;;;;;;;17.95;4.95;;;11.70;99.90;;;;;;5052646;28;20067;-71
2023/05/24 05:48:59;;;;;;;13.38;4.60;;;11.80;99.90;;;;;;5049952;28;20106;-70
2023/05/24 05:51:26;;;;;;;27.10;5.95;;;11.80;99.90;;;;;;5069049;28;20134;-71
2023/05/24 05:53:53;;;;;;;16.70;4.75;;;11.90;99.90;;;;;;5067607;28;20533;-71
2023/05/24 05:56:20;;;;;;;20.60;5.07;;;12.00;99.90;;;;;;5052343;28;20051;-71
2023/05/24 05:58:46;;;;;;;18.23;4.78;;;12.20;99.90;;;;;;5070062;28;20068;-72
2023/05/24 06:01:16;;;;;;;13.23;4.45;;;12.50;99.90;;;;;;5052229;28;20117;-71
2023/05/24 06:03:43;;;;;;;14.27;4.53;;;12.60;99.90;;;;;;5053517;28;20076;-71
2023/05/24 06:06:10;;;;;;;15.43;4.35;;;12.70;99.90;;;;;;5071034;28;20488;-72
2023/05/24 06:08:39;;;;;;;14.55;4.38;;;12.80;99.90;;;;;;5053608;28;20064;-71
2023/05/24 06:11:06;;;;;;;17.98;4.82;;;12.80;99.90;;;;;;5071712;28;20114;-71
2023/05/24 06:13:33;;;;;;;14.23;3.40;;;13.00;99.90;;;;;;5052933;28;20053;-71
2023/05/24 06:16:01;;;;;;;17.25;4.03;;;13.10;99.90;;;;;;5053088;28;20063;-72
2023/05/24 06:18:31;;;;;;;16.75;4.32;;;13.30;99.90;;;;;;5051370;28;20126;-70
2023/05/24 06:20:58;;;;;;;12.52;4.30;;;13.40;99.90;;;;;;5071159;28;20044;-71
2023/05/24 06:23:25;;;;;;;13.80;4.32;;;13.50;99.90;;;;;;5053856;28;20048;-72
2023/05/24 06:25:52;;;;;;;20.20;3.90;;;13.50;99.90;;;;;;5053628;28;20495;-71
2023/05/24 06:28:19;;;;;;;14.57;3.75;;;13.60;99.90;;;;;;5070871;28;20040;-71
2023/05/24 06:30:47;;;;;;;14.27;3.35;;;13.70;99.90;;;;;;5053773;28;20113;-72
2023/05/24 06:33:14;;;;;;;11.32;3.38;;;13.80;99.90;;;;;;5071353;28;20488;-72
2023/05/24 06:35:42;;;;;;;11.38;3.17;;;14.10;99.90;;;;;;5054066;28;20052;-71
2023/05/24 06:38:09;;;;;;;10.73;3.90;;;14.10;99.90;;;;;;5057061;28;20052;-71
2023/05/24 06:40:36;;;;;;;13.32;3.30;;;14.20;99.90;;;;;;5075183;28;20059;-71
2023/05/24 06:43:04;;;;;;;12.98;4.05;;;14.40;99.90;;;;;;5056654;28;20420;-71
2023/05/24 06:45:30;;;;;;;9.30;3.53;;;14.70;99.90;;;;;;5057186;28;20049;-71
2023/05/24 06:47:57;;;;;;;10.75;3.95;;;15.00;99.90;;;;;;5056050;28;20052;-71
2023/05/24 06:50:24;;;;;;;13.05;3.05;;;15.10;99.90;;;;;;5057189;28;20059;-72
2023/05/24 06:52:53;;;;;;;10.60;3.80;;;15.10;99.90;;;;;;5054723;28;20481;-71
2023/05/24 06:55:20;;;;;;;13.27;2.78;;;14.90;99.90;;;;;;5074310;28;20044;-71
2023/05/24 06:57:47;;;;;;;10.07;3.92;;;14.70;99.90;;;;;;5056715;28;20455;-71
2023/05/24 07:00:14;;;;;;;11.15;3.30;;;14.50;99.90;;;;;;5055087;28;20052;-70
2023/05/24 07:02:42;;;;;;;14.27;4.05;;;14.60;99.90;;;;;;5057719;28;20052;-72
2023/05/24 07:05:11;;;;;;;17.15;4.30;;;14.70;99.90;;;;;;5058373;28;20151;-72
2023/05/24 07:07:38;;;;;;;16.20;3.88;;;14.70;99.90;;;;;;5076283;28;20052;-71
2023/05/24 07:10:09;;;;;;;16.25;4.05;;;14.70;99.90;;;;;;5057423;28;20080;-72
2023/05/24 07:12:36;;;;;;;13.10;4.70;;;14.70;99.90;;;;;;5073911;28;20557;-70
2023/05/24 07:15:03;;;;;;;11.98;3.67;;;14.70;99.90;;;;;;5056760;28;20110;-71
2023/05/24 07:17:30;;;;;;;13.45;3.95;;;14.70;99.90;;;;;;5074075;28;20056;-71
2023/05/24 07:19:57;;;;;;;19.52;3.95;;;14.80;99.90;;;;;;5072422;28;20052;-71
2023/05/24 07:22:26;;;;;;;16.33;4.50;;;15.10;99.90;;;;;;5056465;28;20095;-71
2023/05/24 07:24:53;;;;;;;13.05;3.40;;;15.40;99.90;;;;;;5055950;28;20052;-71
2023/05/24 07:27:21;;;;;;;11.00;3.72;;;15.50;99.90;;;;;;5074369;28;20041;-72
2023/05/24 07:29:49;;;;;;;22.20;6.20;;;15.60;99.90;;;;;;5074365;28;20041;-71
2023/05/24 07:32:16;;;;;;;11.85;4.03;;;15.60;99.90;;;;;;5073764;28;20040;-71
2023/05/24 07:34:43;;;;;;;16.83;3.85;;;15.80;99.90;;;;;;5056282;28;20056;-71
2023/05/24 07:37:10;;;;;;;12.68;4.20;;;16.60;99.90;;;;;;5055465;28;20408;-71
2023/05/24 07:39:38;;;;;;;13.02;3.92;;;17.20;99.90;;;;;;5054197;28;20056;-72
2023/05/24 07:42:05;;;;;;;11.18;4.03;;;17.20;99.90;;;;;;5056035;28;20053;-71
2023/05/24 07:44:33;;;;;;;10.75;3.33;;;16.80;99.90;;;;;;5055703;28;20088;-71
2023/05/24 07:47:01;;;;;;;13.60;4.72;;;16.50;99.90;;;;;;5055278;28;20063;-71
2023/05/24 07:49:28;;;;;;;14.02;4.03;;;16.40;99.90;;;;;;5073876;28;20055;-72
2023/05/24 07:51:57;;;;;;;11.13;3.45;;;17.00;99.90;;;;;;5053470;28;20064;-72
2023/05/24 07:54:24;;;;;;;13.32;3.53;;;17.80;99.90;;;;;;5073782;28;20052;-72
2023/05/24 07:56:51;;;;;;;13.40;3.10;;;17.90;99.90;;;;;;5056125;28;20088;-71
2023/05/24 07:59:18;;;;;;;8.05;3.03;;;17.80;99.90;;;;;;5054896;28;20087;-71
2023/05/24 08:01:46;;;;;;;11.55;3.35;;;17.40;99.90;;;;;;5055711;28;20052;-72
2023/05/24 08:04:13;;;;;;;13.18;2.95;;;17.20;99.90;;;;;;5071568;28;20056;-71
2023/05/24 08:06:40;;;;;;;10.30;3.17;;;17.20;99.90;;;;;;5055356;28;20060;-71
2023/05/24 08:09:07;;;;;;;8.73;3.13;;;17.60;99.90;;;;;;5055119;28;20048;-71
2023/05/24 08:11:34;;;;;;;8.15;2.75;;;18.30;99.90;;;;;;5055669;28;20080;-72
2023/05/24 08:14:02;;;;;;;6.60;2.53;;;18.60;99.80;;;;;;5072895;28;20119;-72
2023/05/24 08:16:29;;;;;;;6.20;2.08;;;18.80;99.60;;;;;;5071158;28;20075;-71
2023/05/24 08:18:58;;;;;;;6.43;2.10;;;19.00;99.00;;;;;;5055106;28;20056;-72
2023/05/24 08:21:25;;;;;;;7.88;2.50;;;18.80;98.70;;;;;;5072799;28;20079;-72
2023/05/24 08:23:52;;;;;;;7.97;2.47;;;18.50;98.60;;;;;;5053316;28;20067;-71
2023/05/24 08:26:19;;;;;;;6.65;2.30;;;18.20;98.60;;;;;;5073038;28;20496;-71
2023/05/24 08:28:46;;;;;;;8.35;2.30;;;17.80;98.90;;;;;;5073131;28;20040;-71
2023/05/24 08:31:13;;;;;;;6.30;2.33;;;17.50;99.30;;;;;;5054978;28;20123;-72
2023/05/24 08:33:41;;;;;;;6.68;2.65;;;17.60;99.40;;;;;;5053066;28;20480;-72
2023/05/24 08:36:10;;;;;;;8.00;2.75;;;17.60;99.30;;;;;;5055113;28;20113;-71
2023/05/24 08:38:37;;;;;;;7.30;2.75;;;17.60;99.30;;;;;;5073091;28;20048;-71
2023/05/24 08:41:07;;;;;;;7.10;3.13;;;17.60;99.20;;;;;;5052374;28;20067;-72
2023/05/24 08:43:34;;;;;;;8.82;3.05;;;17.70;99.20;;;;;;5072834;28;20044;-72
2023/05/24 08:46:03;;;;;;;6.50;2.53;;;17.60;99.20;;;;;;5073026;28;20400;-72
2023/05/24 08:48:30;;;;;;;8.73;2.72;;;17.50;99.00;;;;;;5069947;28;20127;-72
2023/05/24 08:50:58;;;;;;;9.52;2.85;;;17.40;99.30;;;;;;5072726;28;20048;-71
2023/05/24 08:53:27;;;;;;;5.47;2.55;;;17.40;99.60;;;;;;5072571;28;20516;-72
2023/05/24 08:55:55;;;;;;;8.10;2.78;;;17.40;99.90;;;;;;5053882;28;20049;-71
2023/05/24 08:58:22;;;;;;;11.65;3.22;;;17.50;99.90;;;;;;5054217;28;20049;-71
2023/05/24 09:00:49;;;;;;;9.50;3.25;;;17.50;99.70;;;;;;5070280;28;20048;-70
2023/05/24 09:03:17;;;;;;;8.23;2.40;;;17.30;99.80;;;;;;5053785;28;20056;-71
2023/05/24 09:05:45;;;;;;;7.45;2.55;;;17.60;99.60;;;;;;5072509;28;20131;-72
2023/05/24 09:08:16;;;;;;;6.90;2.50;;;17.90;99.20;;;;;;5054028;28;20091;-72
2023/05/24 09:10:45;;;;;;;9.88;2.95;;;18.10;98.90;;;;;;5053926;28;20057;-71
2023/05/24 09:13:15;;;;;;;7.57;2.50;;;18.10;98.90;;;;;;5072518;28;20052;-71
2023/05/24 09:15:42;;;;;;;9.13;3.17;;;18.00;98.90;;;;;;5052246;28;20052;-71
2023/05/24 09:18:10;;;;;;;10.25;3.50;;;18.00;99.10;;;;;;5072201;28;20044;-72
2023/05/24 09:20:36;;;;;;;8.85;3.03;;;17.90;99.30;;;;;;5054441;28;20134;-71
2023/05/24 09:23:06;;;;;;;9.23;3.00;;;17.80;99.10;;;;;;5071556;28;20044;-72
2023/05/24 09:25:33;;;;;;;9.47;2.93;;;18.80;99.60;;;;;;5054177;28;20052;-71
2023/05/24 09:28:07;;;;;;;7.47;3.03;;;18.50;99.00;;;;;;5054485;28;20044;-72
2023/05/24 09:30:34;;;;;;;6.70;2.78;;;18.50;97.90;;;;;;5071848;28;20477;-72
2023/05/24 09:33:04;;;;;;;7.50;2.65;;;18.40;98.30;;;;;;5072352;28;20129;-72
2023/05/24 09:35:31;;;;;;;9.93;2.83;;;18.20;98.00;;;;;;5072065;28;20048;-70
2023/05/24 09:37:59;;;;;;;9.10;2.55;;;18.10;98.30;;;;;;5053664;28;20052;-69
2023/05/24 09:40:27;;;;;;;7.10;2.30;;;18.10;98.10;;;;;;5054047;28;20500;-69
2023/05/24 09:43:06;;;;;;;8.63;2.67;;;18.10;98.00;;;;;;5072294;28;20056;-72
2023/05/24 09:45:33;;;;;;;7.25;2.80;;;18.00;98.00;;;;;;5071451;28;20048;-72
2023/05/24 09:48:00;;;;;;;9.85;2.30;;;18.20;98.10;;;;;;5053846;28;20055;-71
2023/05/24 09:50:27;;;;;;;7.55;2.42;;;18.30;98.00;;;;;;5054233;28;20056;-72
2023/05/24 09:52:55;;;;;;;9.55;2.90;;;18.30;97.90;;;;;;5071421;28;20098;-72
2023/05/24 09:55:22;;;;;;;9.02;2.45;;;18.30;98.30;;;;;;5071876;28;20045;-72
2023/05/24 09:57:52;;;;;;;7.93;2.50;;;18.30;98.40;;;;;;5053423;28;20534;-73
2023/05/24 10:00:24;;;;;;;8.10;2.22;;;18.40;98.40;;;;;;5054168;28;20372;-72
2023/05/24 10:03:02;;;;;;;6.88;2.38;;;18.40;98.50;;;;;;5071815;28;20056;-72
2023/05/24 10:05:29;;;;;;;8.65;3.47;;;18.50;97.80;;;;;;5053171;28;20052;-71
2023/05/24 10:07:57;;;;;;;5.97;2.63;;;18.50;98.30;;;;;;5053740;28;20052;-72
2023/05/24 10:10:28;;;;;;;6.57;2.60;;;18.40;98.60;;;;;;5054280;28;20048;-71
2023/05/24 10:12:56;;;;;;;8.35;3.05;;;18.30;98.50;;;;;;5075411;28;20484;-72
2023/05/24 10:15:24;;;;;;;11.15;3.80;;;18.10;98.90;;;;;;5057749;28;20051;-72
2023/05/24 10:17:51;;;;;;;17.30;3.35;;;18.00;99.20;;;;;;5075941;28;20045;-72
2023/05/24 10:20:19;;;;;;;9.40;3.20;;;17.80;99.20;;;;;;5075044;28;20044;-72
2023/05/24 10:22:47;;;;;;;8.98;3.20;;;17.60;99.60;;;;;;5075883;28;20052;-72
2023/05/24 10:25:21;;;;;;;7.68;2.80;;;17.70;99.80;;;;;;5057570;28;20056;-72
2023/05/24 10:27:50;;;;;;;11.15;3.17;;;17.20;99.90;;;;;;5054736;28;20090;-72
2023/05/24 10:30:26;;;;;;;9.45;3.20;;;17.40;99.90;;;;;;5057377;28;20460;-71
2023/05/24 10:32:56;;;;;;;7.60;3.20;;;17.30;99.90;;;;;;5075323;28;20045;-71
2023/05/24 10:35:26;;;;;;;8.35;3.47;;;17.20;99.90;;;;;;5057592;28;21346;-71
2023/05/24 10:37:54;;;;;;;11.80;3.73;;;16.90;99.90;;;;;;5057522;28;20056;-71
2023/05/24 10:40:24;;;;;;;8.82;3.20;;;16.70;99.90;;;;;;5056462;28;20127;-72
2023/05/24 10:42:53;;;;;;;10.85;3.30;;;16.60;99.90;;;;;;5075483;28;20052;-72
2023/05/24 10:45:39;;;;;;;9.05;2.95;;;16.60;99.90;;;;;;5056243;28;20516;-72
2023/05/24 10:48:37;;;;;;;10.73;3.60;;;16.60;99.90;;;;;;5054985;28;20080;-72
2023/05/24 10:51:37;;;;;;;9.63;3.65;;;16.70;99.90;;;;;;5074317;28;20076;-72
2023/05/24 10:54:17;;;;;;;12.27;3.30;;;17.00;99.90;;;;;;5054241;28;20044;-71
2023/05/24 10:56:46;;;;;;;11.43;3.90;;;17.20;99.90;;;;;;5075074;28;20048;-72
2023/05/24 10:59:33;;;;;;;9.07;3.53;;;17.40;99.90;;;;;;5054794;28;20098;-72
2023/05/24 11:02:02;;;;;;;11.07;4.00;;;17.50;99.90;;;;;;5074603;28;20049;-71
2023/05/24 11:04:36;;;;;;;12.85;3.67;;;18.00;99.90;;;;;;5074981;28;20063;-72
2023/05/24 11:07:05;;;;;;;12.70;3.70;;;18.90;99.90;;;;;;5056983;28;20060;-72
2023/05/24 11:09:33;;;;;;;11.60;3.55;;;19.90;99.90;;;;;;5072749;28;20403;-72
2023/05/24 11:12:03;;;;;;;11.18;3.63;;;20.20;98.90;;;;;;5056864;28;20048;-72
2023/05/24 11:14:31;;;;;;;11.00;3.17;;;19.90;97.80;;;;;;5061310;28;20083;-70
2023/05/24 11:17:00;;;;;;;10.27;2.97;;;19.50;97.60;;;;;;5076383;28;20127;-72
2023/05/24 11:19:36;;;;;;;9.82;2.72;;;19.10;97.30;;;;;;5057840;28;20079;-72
2023/05/24 11:22:07;;;;;;;7.55;2.88;;;18.80;97.40;;;;;;5058242;28;20048;-72
2023/05/24 11:24:35;;;;;;;6.88;2.40;;;18.50;97.00;;;;;;5057486;28;20145;-71
2023/05/24 11:27:02;;;;;;;7.03;2.20;;;18.30;97.60;;;;;;5075868;28;20106;-71
2023/05/24 11:29:30;;;;;;;9.63;2.90;;;18.30;97.60;;;;;;5055679;28;20056;-72
2023/05/24 11:32:02;;;;;;;6.03;2.55;;;18.10;98.00;;;;;;5056497;28;20060;-71
2023/05/24 11:34:30;;;;;;;8.50;2.92;;;18.00;97.70;;;;;;5056545;28;20062;-71
2023/05/24 11:36:59;;;;;;;8.15;2.80;;;18.70;97.80;;;;;;5053731;28;20128;-71
2023/05/24 11:39:30;;;;;;;7.85;3.03;;;18.30;97.80;;;;;;5074262;28;20055;-71
2023/05/24 11:41:57;;;;;;;10.27;2.97;;;18.10;98.20;;;;;;5056516;28;20385;-72
2023/05/24 11:44:25;;;;;;;9.35;2.88;;;18.20;98.00;;;;;;5053664;28;20052;-71
2023/05/24 11:46:58;;;;;;;8.65;2.67;;;18.10;97.70;;;;;;5073768;28;20056;-72
2023/05/24 11:49:25;;;;;;;11.20;2.80;;;18.30;97.60;;;;;;5074147;28;20434;-71
2023/05/24 11:51:55;;;;;;;9.98;2.58;;;18.40;97.40;;;;;;5055291;28;20140;-71
2023/05/24 11:54:23;;;;;;;;;;;18.50;97.30;;;;;;5074590;28;20041;-71
2023/05/24 11:56:51;;;;;;;8.13;2.50;;;18.30;97.30;;;;;;5055758;28;20394;-71
2023/05/24 11:59:22;;;;;;;7.85;3.00;;;18.40;97.50;;;;;;5073162;28;20119;-72
2023/05/24 12:01:51;;;;;;;9.88;2.75;;;18.30;97.90;;;;;;5053986;28;20154;-71
2023/05/24 12:04:17;;;;;;;8.80;3.00;;;18.10;98.00;;;;;;5073747;28;20049;-71
2023/05/24 12:06:45;;;;;;;9.43;3.40;;;17.80;97.90;;;;;;5055303;28;20062;-72
2023/05/24 12:09:13;;;;;;;8.45;3.00;;;17.80;98.30;;;;;;5055498;28;20516;-72
2023/05/24 12:11:42;;;;;;;11.85;3.13;;;17.80;98.80;;;;;;5054863;28;20088;-71
2023/05/24 12:14:12;;;;;;;11.43;2.55;;;17.70;98.90;;;;;;5073594;28;20045;-72
2023/05/24 12:16:39;;;;;;;15.65;3.67;;;17.50;99.00;;;;;;5071865;28;20052;-71
2023/05/24 12:19:06;;;;;;;8.40;2.65;;;17.40;99.30;;;;;;5054927;28;20102;-70
2023/05/24 12:21:35;;;;;;;9.15;2.85;;;17.20;99.20;;;;;;5073411;28;20071;-71
2023/05/24 12:24:09;;;;;;;8.15;3.00;;;17.10;99.60;;;;;;5055469;28;20101;-71
2023/05/24 12:26:37;;;;;;;10.15;2.55;;;17.70;99.80;;;;;;5054552;28;20129;-72
2023/05/24 12:29:06;;;;;;;7.68;2.63;;;18.90;99.00;;;;;;5055323;28;20102;-71
2023/05/24 12:31:34;;;;;;;11.93;3.25;;;18.70;98.30;;;;;;5073276;28;20049;-72
2023/05/24 12:34:03;;;;;;;9.20;3.20;;;18.50;98.10;;;;;;5054213;28;20044;-72
2023/05/24 12:36:31;;;;;;;12.88;3.35;;;18.30;98.40;;;;;;5054992;28;20059;-71
2023/05/24 12:38:58;;;;;;;9.05;2.90;;;18.10;98.50;;;;;;5072849;28;20127;-71
2023/05/24 12:41:26;;;;;;;8.90;3.22;;;18.10;98.50;;;;;;5072441;28;20072;-71
2023/05/24 12:43:53;;;;;;;9.15;3.40;;;18.10;98.70;;;;;;5055077;28;20098;-72
2023/05/24 12:46:22;;;;;;;12.65;3.15;;;18.80;98.90;;;;;;5052690;28;20058;-71
2023/05/24 12:48:49;;;;;;;9.65;3.72;;;19.10;98.30;;;;;;5054376;28;20056;-72
2023/05/24 12:51:16;;;;;;;10.93;3.20;;;19.30;97.80;;;;;;5054896;28;20489;-71